sensor_id;sensor_type;location;lat;lon;timestamp;pressure;altitude;pressure_sealevel;temperature;humidity
68988;BME280;56038;46.080;11.116;2023-05-14T00:04:12;99305.28;;;12.42;84.91
68988;BME280;56038;46.080;11.116;2023-05-14T00:09:15;99301.78;;;12.24;85.92
68988;BME280;56038;46.080;11.116;2023-05-14T00:14:17;99304.28;;;12.09;86.67
68988;BME280;56038;46.080;11.116;2023-05-14T00:19:19;99298.91;;;12.12;86.29
68988;BME280;56038;46.080;11.116;2023-05-14T00:24:22;99292.63;;;12.16;86.08
68988;BME280;56038;46.080;11.116;2023-05-14T00:29:24;99291.03;;;12.12;86.44
68988;BME280;56038;46.080;11.116;2023-05-14T00:34:25;99278.94;;;12.09;86.28
68988;BME280;56038;46.080;11.116;2023-05-14T00:39:29;99270.09;;;12.12;86.00
68988;BME280;56038;46.080;11.116;2023-05-14T00:44:30;99276.19;;;12.12;86.12
68988;BME280;56038;46.080;11.116;2023-05-14T00:49:32;99267.72;;;12.07;86.54
68988;BME280;56038;46.080;11.116;2023-05-14T00:54:36;99264.41;;;12.04;86.67
68988;BME280;56038;46.080;11.116;2023-05-14T00:59:38;99263.31;;;12.08;86.32
68988;BME280;56038;46.080;11.116;2023-05-14T01:04:42;99265.00;;;12.09;86.30
68988;BME280;56038;46.080;11.116;2023-05-14T01:09:50;99256.31;;;12.08;86.83
68988;BME280;56038;46.080;11.116;2023-05-14T01:15:00;99247.31;;;12.14;86.09
68988;BME280;56038;46.080;11.116;2023-05-14T01:20:04;99249.78;;;12.17;86.09
68988;BME280;56038;46.080;11.116;2023-05-14T01:25:08;99243.75;;;12.15;86.14
68988;BME280;56038;46.080;11.116;2023-05-14T01:30:14;99244.00;;;12.10;86.86
68988;BME280;56038;46.080;11.116;2023-05-14T01:35:21;99235.75;;;12.01;87.43
68988;BME280;56038;46.080;11.116;2023-05-14T01:40:26;99243.16;;;12.10;86.88
68988;BME280;56038;46.080;11.116;2023-05-14T01:45:29;99236.22;;;12.09;87.20
68988;BME280;56038;46.080;11.116;2023-05-14T01:50:31;99244.16;;;12.07;87.77
68988;BME280;56038;46.080;11.116;2023-05-14T01:55:34;99240.06;;;12.02;88.08
68988;BME280;56038;46.080;11.116;2023-05-14T02:00:35;99231.75;;;12.11;87.37
68988;BME280;56038;46.080;11.116;2023-05-14T02:05:47;99225.44;;;12.15;87.20
68988;BME280;56038;46.080;11.116;2023-05-14T02:10:58;99214.41;;;12.08;87.40
68988;BME280;56038;46.080;11.116;2023-05-14T02:16:00;99206.81;;;12.04;87.59
68988;BME280;56038;46.080;11.116;2023-05-14T02:21:01;99209.41;;;12.04;87.67
68988;BME280;56038;46.080;11.116;2023-05-14T02:26:05;99201.72;;;12.01;87.92
68988;BME280;56038;46.080;11.116;2023-05-14T02:31:07;99195.69;;;11.98;88.20
68988;BME280;56038;46.080;11.116;2023-05-14T02:36:09;99190.44;;;11.98;88.41
68988;BME280;56038;46.080;11.116;2023-05-14T02:41:12;99179.22;;;11.96;88.74
68988;BME280;56038;46.080;11.116;2023-05-14T02:46:14;99181.81;;;11.96;88.44
68988;BME280;56038;46.080;11.116;2023-05-14T02:51:18;99177.91;;;11.88;89.67
68988;BME280;56038;46.080;11.116;2023-05-14T02:56:21;99171.66;;;11.90;89.07
68988;BME280;56038;46.080;11.116;2023-05-14T03:01:23;99172.34;;;11.94;89.10
68988;BME280;56038;46.080;11.116;2023-05-14T03:06:25;99168.97;;;11.92;89.51
68988;BME280;56038;46.080;11.116;2023-05-14T03:11:28;99155.72;;;11.95;88.96
68988;BME280;56038;46.080;11.116;2023-05-14T03:16:30;99156.41;;;11.98;89.24
68988;BME280;56038;46.080;11.116;2023-05-14T03:21:32;99163.22;;;12.03;89.05
68988;BME280;56038;46.080;11.116;2023-05-14T03:26:35;99153.59;;;12.03;89.10
68988;BME280;56038;46.080;11.116;2023-05-14T03:31:36;99154.59;;;12.01;89.28
68988;BME280;56038;46.080;11.116;2023-05-14T03:36:38;99163.22;;;12.03;89.12
68988;BME280;56038;46.080;11.116;2023-05-14T03:41:41;99159.88;;;11.99;89.50
68988;BME280;56038;46.080;11.116;2023-05-14T03:46:43;99165.19;;;11.97;89.73
68988;BME280;56038;46.080;11.116;2023-05-14T03:51:45;99157.91;;;12.04;89.58
68988;BME280;56038;46.080;11.116;2023-05-14T03:56:48;99151.19;;;11.98;89.43
68988;BME280;56038;46.080;11.116;2023-05-14T04:01:50;99150.91;;;12.05;89.34
68988;BME280;56038;46.080;11.116;2023-05-14T04:06:52;99145.59;;;12.06;88.98
68988;BME280;56038;46.080;11.116;2023-05-14T04:11:55;99141.13;;;12.08;89.18
68988;BME280;56038;46.080;11.116;2023-05-14T04:16:58;99144.22;;;12.16;89.11
68988;BME280;56038;46.080;11.116;2023-05-14T04:21:59;99143.03;;;12.22;88.80
68988;BME280;56038;46.080;11.116;2023-05-14T04:27:03;99156.13;;;12.22;89.29
68988;BME280;56038;46.080;11.116;2023-05-14T04:32:06;99150.81;;;12.23;89.19
68988;BME280;56038;46.080;11.116;2023-05-14T04:37:07;99146.34;;;12.43;88.23
68988;BME280;56038;46.080;11.116;2023-05-14T04:42:11;99134.91;;;12.61;87.38
68988;BME280;56038;46.080;11.116;2023-05-14T04:47:12;99133.25;;;12.76;86.60
68988;BME280;56038;46.080;11.116;2023-05-14T04:52:15;99133.72;;;12.84;86.75
68988;BME280;56038;46.080;11.116;2023-05-14T04:57:18;99133.63;;;12.85;85.85
68988;BME280;56038;46.080;11.116;2023-05-14T05:02:20;99145.63;;;12.89;85.61
68988;BME280;56038;46.080;11.116;2023-05-14T05:07:22;99135.31;;;12.86;85.27
68988;BME280;56038;46.080;11.116;2023-05-14T05:12:25;99134.25;;;12.73;85.11
68988;BME280;56038;46.080;11.116;2023-05-14T05:17:29;99125.75;;;12.85;85.86
68988;BME280;56038;46.080;11.116;2023-05-14T05:22:30;99117.16;;;12.99;84.73
68988;BME280;56038;46.080;11.116;2023-05-14T05:27:33;99112.94;;;12.97;84.60
68988;BME280;56038;46.080;11.116;2023-05-14T05:32:35;99108.25;;;12.86;85.18
68988;BME280;56038;46.080;11.116;2023-05-14T05:37:37;99107.78;;;12.95;84.98
68988;BME280;56038;46.080;11.116;2023-05-14T05:42:40;99103.03;;;13.02;84.67
68988;BME280;56038;46.080;11.116;2023-05-14T05:47:41;99118.28;;;13.11;84.47
68988;BME280;56038;46.080;11.116;2023-05-14T05:52:43;99109.41;;;13.13;84.63
68988;BME280;56038;46.080;11.116;2023-05-14T05:57:46;99108.06;;;13.22;84.15
68988;BME280;56038;46.080;11.116;2023-05-14T06:02:48;99112.13;;;13.28;84.46
68988;BME280;56038;46.080;11.116;2023-05-14T06:07:50;99101.97;;;13.37;84.31
68988;BME280;56038;46.080;11.116;2023-05-14T06:12:54;99098.75;;;13.48;84.27
68988;BME280;56038;46.080;11.116;2023-05-14T06:17:55;99094.41;;;13.63;83.86
68988;BME280;56038;46.080;11.116;2023-05-14T06:22:57;99089.16;;;13.63;84.41
68988;BME280;56038;46.080;11.116;2023-05-14T06:28:00;99080.34;;;13.64;84.27
68988;BME280;56038;46.080;11.116;2023-05-14T06:33:02;99068.41;;;13.74;84.16
68988;BME280;56038;46.080;11.116;2023-05-14T06:38:03;99072.75;;;13.89;83.42
68988;BME280;56038;46.080;11.116;2023-05-14T06:43:07;99065.69;;;14.05;82.68
68988;BME280;56038;46.080;11.116;2023-05-14T06:48:08;99060.91;;;14.12;82.87
68988;BME280;56038;46.080;11.116;2023-05-14T06:53:13;99060.91;;;14.12;82.72
68988;BME280;56038;46.080;11.116;2023-05-14T06:58:17;99059.19;;;14.11;82.26
68988;BME280;56038;46.080;11.116;2023-05-14T07:03:18;99055.84;;;14.23;81.70
68988;BME280;56038;46.080;11.116;2023-05-14T07:08:21;99048.53;;;14.43;81.00
68988;BME280;56038;46.080;11.116;2023-05-14T07:13:25;99043.69;;;14.51;80.57
68988;BME280;56038;46.080;11.116;2023-05-14T07:18:27;99031.84;;;14.72;80.18
68988;BME280;56038;46.080;11.116;2023-05-14T07:23:29;99032.28;;;15.34;79.42
68988;BME280;56038;46.080;11.116;2023-05-14T07:28:32;99025.34;;;15.73;77.24
68988;BME280;56038;46.080;11.116;2023-05-14T07:33:34;99016.53;;;15.99;76.36
68988;BME280;56038;46.080;11.116;2023-05-14T07:38:36;98998.31;;;15.96;75.91
68988;BME280;56038;46.080;11.116;2023-05-14T07:43:39;98999.78;;;16.00;75.60
68988;BME280;56038;46.080;11.116;2023-05-14T07:48:40;98991.16;;;16.11;75.42
68988;BME280;56038;46.080;11.116;2023-05-14T07:53:42;98975.25;;;16.12;74.61
68988;BME280;56038;46.080;11.116;2023-05-14T07:58:45;98965.44;;;16.14;74.22
68988;BME280;56038;46.080;11.116;2023-05-14T08:03:47;98972.06;;;16.07;73.82
68988;BME280;56038;46.080;11.116;2023-05-14T08:08:48;98955.91;;;16.25;73.58
68988;BME280;56038;46.080;11.116;2023-05-14T08:13:51;98940.09;;;16.25;73.31
68988;BME280;56038;46.080;11.116;2023-05-14T08:18:53;98922.44;;;16.14;72.47
68988;BME280;56038;46.080;11.116;2023-05-14T08:23:55;98917.22;;;16.25;72.56
68988;BME280;56038;46.080;11.116;2023-05-14T08:28:58;98901.28;;;16.39;71.72
68988;BME280;56038;46.080;11.116;2023-05-14T08:34:00;98897.78;;;16.52;70.96
68988;BME280;56038;46.080;11.116;2023-05-14T08:39:01;98887.06;;;16.66;70.68
68988;BME280;56038;46.080;11.116;2023-05-14T08:44:11;98890.66;;;16.77;69.41
68988;BME280;56038;46.080;11.116;2023-05-14T08:49:18;98877.06;;;16.95;69.19
68988;BME280;56038;46.080;11.116;2023-05-14T08:54:23;98870.88;;;17.18;68.65
68988;BME280;56038;46.080;11.116;2023-05-14T08:59:26;98873.31;;;17.21;68.48
68988;BME280;56038;46.080;11.116;2023-05-14T09:04:28;98864.16;;;17.14;68.05
68988;BME280;56038;46.080;11.116;2023-05-14T09:09:31;98858.16;;;17.12;67.92
68988;BME280;56038;46.080;11.116;2023-05-14T09:14:34;98849.56;;;17.32;67.12
68988;BME280;56038;46.080;11.116;2023-05-14T09:19:36;98846.22;;;16.95;67.34
68988;BME280;56038;46.080;11.116;2023-05-14T09:24:39;98840.41;;;17.14;66.10
68988;BME280;56038;46.080;11.116;2023-05-14T09:29:43;98833.00;;;17.30;66.63
68988;BME280;56038;46.080;11.116;2023-05-14T09:34:44;98825.50;;;17.59;66.20
68988;BME280;56038;46.080;11.116;2023-05-14T09:39:46;98834.19;;;17.84;65.40
68988;BME280;56038;46.080;11.116;2023-05-14T09:44:52;98820.97;;;17.73;65.06
68988;BME280;56038;46.080;11.116;2023-05-14T09:49:54;98808.47;;;17.52;65.18
68988;BME280;56038;46.080;11.116;2023-05-14T09:54:56;98799.28;;;17.34;65.66
68988;BME280;56038;46.080;11.116;2023-05-14T09:59:59;98800.63;;;17.28;66.24
68988;BME280;56038;46.080;11.116;2023-05-14T10:05:03;98791.84;;;17.28;66.27
68988;BME280;56038;46.080;11.116;2023-05-14T10:10:06;98791.72;;;17.29;67.04
68988;BME280;56038;46.080;11.116;2023-05-14T10:15:16;98785.78;;;16.92;67.58
68988;BME280;56038;46.080;11.116;2023-05-14T10:20:22;98785.00;;;16.55;69.03
68988;BME280;56038;46.080;11.116;2023-05-14T10:25:26;98780.53;;;16.44;69.81
68988;BME280;56038;46.080;11.116;2023-05-14T10:30:30;98767.47;;;16.43;69.55
68988;BME280;56038;46.080;11.116;2023-05-14T10:35:50;98774.63;;;16.41;69.25
68988;BME280;56038;46.080;11.116;2023-05-14T10:40:55;98771.16;;;16.40;69.42
68988;BME280;56038;46.080;11.116;2023-05-14T10:45:59;98762.03;;;16.57;68.91
68988;BME280;56038;46.080;11.116;2023-05-14T10:51:06;98757.06;;;16.53;68.10
68988;BME280;56038;46.080;11.116;2023-05-14T10:56:10;98747.94;;;16.69;68.28
68988;BME280;56038;46.080;11.116;2023-05-14T11:01:14;98737.44;;;16.81;67.19
68988;BME280;56038;46.080;11.116;2023-05-14T11:06:16;98736.63;;;17.02;66.84
68988;BME280;56038;46.080;11.116;2023-05-14T11:11:18;98734.69;;;16.93;66.12
68988;BME280;56038;46.080;11.116;2023-05-14T11:16:21;98733.75;;;16.94;65.31
68988;BME280;56038;46.080;11.116;2023-05-14T11:21:23;98736.25;;;16.96;65.40
68988;BME280;56038;46.080;11.116;2023-05-14T11:26:25;98730.63;;;17.00;65.43
68988;BME280;56038;46.080;11.116;2023-05-14T11:31:28;98731.72;;;17.09;62.70
68988;BME280;56038;46.080;11.116;2023-05-14T11:36:30;98722.25;;;17.06;64.06
68988;BME280;56038;46.080;11.116;2023-05-14T11:41:31;98714.44;;;16.94;63.38
68988;BME280;56038;46.080;11.116;2023-05-14T11:46:35;98718.41;;;17.11;64.05
68988;BME280;56038;46.080;11.116;2023-05-14T11:51:36;98711.34;;;17.22;63.95
68988;BME280;56038;46.080;11.116;2023-05-14T11:56:38;98706.19;;;17.32;64.14
68988;BME280;56038;46.080;11.116;2023-05-14T12:01:43;98701.75;;;17.55;64.08
68988;BME280;56038;46.080;11.116;2023-05-14T12:06:45;98697.56;;;17.52;64.45
68988;BME280;56038;46.080;11.116;2023-05-14T12:11:48;98686.16;;;17.29;65.49
68988;BME280;56038;46.080;11.116;2023-05-14T12:16:51;98686.00;;;16.97;66.18
68988;BME280;56038;46.080;11.116;2023-05-14T12:21:53;98671.00;;;16.75;66.98
68988;BME280;56038;46.080;11.116;2023-05-14T12:26:55;98664.53;;;17.02;66.59
68988;BME280;56038;46.080;11.116;2023-05-14T12:31:58;98668.88;;;16.92;66.55
68988;BME280;56038;46.080;11.116;2023-05-14T12:37:00;98677.03;;;17.00;66.49
68988;BME280;56038;46.080;11.116;2023-05-14T12:42:02;98659.50;;;17.32;65.94
68988;BME280;56038;46.080;11.116;2023-05-14T12:47:05;98666.31;;;17.57;65.21
68988;BME280;56038;46.080;11.116;2023-05-14T12:52:07;98666.91;;;17.50;65.26
68988;BME280;56038;46.080;11.116;2023-05-14T12:57:09;98663.75;;;17.67;64.66
68988;BME280;56038;46.080;11.116;2023-05-14T13:02:12;98659.63;;;17.96;64.40
68988;BME280;56038;46.080;11.116;2023-05-14T13:07:14;98657.06;;;18.17;63.94
68988;BME280;56038;46.080;11.116;2023-05-14T13:12:16;98657.09;;;18.27;63.38
68988;BME280;56038;46.080;11.116;2023-05-14T13:17:19;98656.97;;;18.08;62.90
68988;BME280;56038;46.080;11.116;2023-05-14T13:22:21;98649.41;;;17.71;61.82
68988;BME280;56038;46.080;11.116;2023-05-14T13:27:22;98645.00;;;17.92;63.10
68988;BME280;56038;46.080;11.116;2023-05-14T13:32:26;98638.19;;;18.11;62.27
68988;BME280;56038;46.080;11.116;2023-05-14T13:37:27;98645.88;;;17.82;63.56
68988;BME280;56038;46.080;11.116;2023-05-14T13:42:29;98645.41;;;18.09;63.31
68988;BME280;56038;46.080;11.116;2023-05-14T13:47:32;98653.44;;;18.18;63.03
68988;BME280;56038;46.080;11.116;2023-05-14T13:52:34;98651.78;;;18.17;63.27
68988;BME280;56038;46.080;11.116;2023-05-14T13:57:37;98650.56;;;17.78;64.03
68988;BME280;56038;46.080;11.116;2023-05-14T14:02:40;98655.69;;;17.36;65.69
68988;BME280;56038;46.080;11.116;2023-05-14T14:07:42;98649.69;;;17.23;66.58
68988;BME280;56038;46.080;11.116;2023-05-14T14:12:44;98658.09;;;17.06;67.48
68988;BME280;56038;46.080;11.116;2023-05-14T14:17:48;98655.94;;;16.89;68.09
68988;BME280;56038;46.080;11.116;2023-05-14T14:22:49;98657.69;;;16.31;71.11
68988;BME280;56038;46.080;11.116;2023-05-14T14:27:51;98661.88;;;16.09;71.38
68988;BME280;56038;46.080;11.116;2023-05-14T14:32:54;98655.22;;;16.16;72.14
68988;BME280;56038;46.080;11.116;2023-05-14T14:37:56;98667.75;;;16.02;73.10
68988;BME280;56038;46.080;11.116;2023-05-14T14:42:57;98675.25;;;15.95;73.10
68988;BME280;56038;46.080;11.116;2023-05-14T14:48:23;98672.59;;;15.71;75.45
68988;BME280;56038;46.080;11.116;2023-05-14T14:53:25;98662.09;;;15.58;75.65
68988;BME280;56038;46.080;11.116;2023-05-14T14:58:27;98681.56;;;15.69;74.16
68988;BME280;56038;46.080;11.116;2023-05-14T15:03:31;98687.63;;;15.82;73.21
68988;BME280;56038;46.080;11.116;2023-05-14T15:08:33;98686.66;;;15.59;73.25
68988;BME280;56038;46.080;11.116;2023-05-14T15:13:35;98689.31;;;15.46;73.05
68988;BME280;56038;46.080;11.116;2023-05-14T15:18:40;98690.78;;;15.25;74.21
68988;BME280;56038;46.080;11.116;2023-05-14T15:23:42;98700.06;;;15.18;75.04
68988;BME280;56038;46.080;11.116;2023-05-14T15:28:44;98696.06;;;15.25;75.97
68988;BME280;56038;46.080;11.116;2023-05-14T15:33:47;98705.84;;;15.23;75.51
68988;BME280;56038;46.080;11.116;2023-05-14T15:38:49;98713.63;;;15.24;75.70
68988;BME280;56038;46.080;11.116;2023-05-14T15:43:50;98717.31;;;15.22;77.00
68988;BME280;56038;46.080;11.116;2023-05-14T15:48:54;98715.66;;;15.21;76.97
68988;BME280;56038;46.080;11.116;2023-05-14T15:53:55;98722.16;;;15.28;76.34
68988;BME280;56038;46.080;11.116;2023-05-14T15:58:57;98729.19;;;15.27;76.31
68988;BME280;56038;46.080;11.116;2023-05-14T16:04:00;98731.34;;;15.84;75.92
68988;BME280;56038;46.080;11.116;2023-05-14T16:09:02;98731.59;;;15.69;76.54
68988;BME280;56038;46.080;11.116;2023-05-14T16:14:04;98734.03;;;15.59;76.82
68988;BME280;56038;46.080;11.116;2023-05-14T16:19:08;98727.84;;;15.47;77.60
68988;BME280;56038;46.080;11.116;2023-05-14T16:24:10;98728.56;;;15.37;78.22
68988;BME280;56038;46.080;11.116;2023-05-14T16:29:12;98732.16;;;15.10;80.04
68988;BME280;56038;46.080;11.116;2023-05-14T16:34:15;98738.16;;;15.12;80.13
68988;BME280;56038;46.080;11.116;2023-05-14T16:39:16;98736.69;;;15.08;80.64
68988;BME280;56038;46.080;11.116;2023-05-14T16:44:18;98733.97;;;14.84;81.05
68988;BME280;56038;46.080;11.116;2023-05-14T16:49:21;98732.88;;;14.74;81.64
68988;BME280;56038;46.080;11.116;2023-05-14T16:54:23;98728.22;;;14.65;83.13
68988;BME280;56038;46.080;11.116;2023-05-14T16:59:25;98732.13;;;14.59;83.52
68988;BME280;56038;46.080;11.116;2023-05-14T17:04:28;98733.66;;;14.49;83.58
68988;BME280;56038;46.080;11.116;2023-05-14T17:09:31;98732.78;;;14.36;83.25
68988;BME280;56038;46.080;11.116;2023-05-14T17:14:33;98737.03;;;14.24;84.08
68988;BME280;56038;46.080;11.116;2023-05-14T17:19:36;98739.94;;;14.07;84.50
68988;BME280;56038;46.080;11.116;2023-05-14T17:24:38;98735.41;;;14.09;85.15
68988;BME280;56038;46.080;11.116;2023-05-14T17:29:40;98741.44;;;13.97;84.46
68988;BME280;56038;46.080;11.116;2023-05-14T17:34:43;98742.59;;;13.93;84.07
68988;BME280;56038;46.080;11.116;2023-05-14T17:39:45;98738.13;;;13.81;84.21
68988;BME280;56038;46.080;11.116;2023-05-14T17:44:47;98754.09;;;14.04;84.37
68988;BME280;56038;46.080;11.116;2023-05-14T17:49:50;98755.31;;;13.99;84.85
68988;BME280;56038;46.080;11.116;2023-05-14T17:54:52;98745.88;;;13.82;85.93
68988;BME280;56038;46.080;11.116;2023-05-14T17:59:54;98750.50;;;13.78;86.83
68988;BME280;56038;46.080;11.116;2023-05-14T18:04:57;98750.88;;;13.72;87.36
68988;BME280;56038;46.080;11.116;2023-05-14T18:09:59;98752.84;;;13.55;88.63
68988;BME280;56038;46.080;11.116;2023-05-14T18:15:01;98744.34;;;13.37;89.76
68988;BME280;56038;46.080;11.116;2023-05-14T18:20:06;98747.50;;;13.13;90.35
68988;BME280;56038;46.080;11.116;2023-05-14T18:25:08;98752.44;;;13.04;90.65
68988;BME280;56038;46.080;11.116;2023-05-14T18:30:13;98749.38;;;13.11;90.69
68988;BME280;56038;46.080;11.116;2023-05-14T18:35:17;98761.28;;;13.17;91.89
68988;BME280;56038;46.080;11.116;2023-05-14T18:40:19;98767.00;;;13.24;91.07
68988;BME280;56038;46.080;11.116;2023-05-14T18:45:21;98781.16;;;13.21;91.25
68988;BME280;56038;46.080;11.116;2023-05-14T18:50:24;98772.34;;;13.22;91.59
68988;BME280;56038;46.080;11.116;2023-05-14T18:55:26;98776.25;;;13.01;94.10
68988;BME280;56038;46.080;11.116;2023-05-14T19:00:28;98777.84;;;13.03;93.94
68988;BME280;56038;46.080;11.116;2023-05-14T19:05:44;98782.03;;;13.06;94.20
68988;BME280;56038;46.080;11.116;2023-05-14T19:10:53;98790.00;;;13.04;95.10
68988;BME280;56038;46.080;11.116;2023-05-14T19:15:55;98802.41;;;12.86;94.58
68988;BME280;56038;46.080;11.116;2023-05-14T19:20:58;98800.66;;;12.87;93.63
68988;BME280;56038;46.080;11.116;2023-05-14T19:26:00;98813.66;;;12.88;93.76
68988;BME280;56038;46.080;11.116;2023-05-14T19:31:03;98813.75;;;12.87;93.08
68988;BME280;56038;46.080;11.116;2023-05-14T19:36:07;98816.75;;;12.81;92.70
68988;BME280;56038;46.080;11.116;2023-05-14T19:41:09;98828.69;;;12.71;92.81
68988;BME280;56038;46.080;11.116;2023-05-14T19:46:14;98819.72;;;12.59;93.30
68988;BME280;56038;46.080;11.116;2023-05-14T19:51:17;98824.50;;;12.52;93.42
68988;BME280;56038;46.080;11.116;2023-05-14T19:56:19;98821.81;;;12.38;95.01
68988;BME280;56038;46.080;11.116;2023-05-14T20:01:22;98821.03;;;12.36;96.30
68988;BME280;56038;46.080;11.116;2023-05-14T20:06:36;98829.16;;;12.32;94.49
68988;BME280;56038;46.080;11.116;2023-05-14T20:11:45;98831.25;;;12.41;94.49
68988;BME280;56038;46.080;11.116;2023-05-14T20:16:46;98828.72;;;12.39;94.73
68988;BME280;56038;46.080;11.116;2023-05-14T20:21:50;98835.06;;;12.51;94.38
68988;BME280;56038;46.080;11.116;2023-05-14T20:26:52;98836.75;;;12.52;94.68
68988;BME280;56038;46.080;11.116;2023-05-14T20:31:54;98831.84;;;12.30;95.17
68988;BME280;56038;46.080;11.116;2023-05-14T20:36:57;98825.75;;;12.29;95.46
68988;BME280;56038;46.080;11.116;2023-05-14T20:41:59;98829.09;;;12.33;96.46
68988;BME280;56038;46.080;11.116;2023-05-14T20:47:01;98830.41;;;12.40;96.24
68988;BME280;56038;46.080;11.116;2023-05-14T20:52:05;98817.88;;;12.45;96.01
68988;BME280;56038;46.080;11.116;2023-05-14T20:57:07;98815.63;;;12.39;95.69
68988;BME280;56038;46.080;11.116;2023-05-14T21:12:23;98804.97;;;12.42;95.26
68988;BME280;56038;46.080;11.116;2023-05-14T21:17:24;98805.91;;;12.41;95.60
68988;BME280;56038;46.080;11.116;2023-05-14T21:22:26;98798.03;;;12.41;95.85
68988;BME280;56038;46.080;11.116;2023-05-14T21:27:29;98799.72;;;12.42;95.19
68988;BME280;56038;46.080;11.116;2023-05-14T21:32:31;98790.63;;;12.49;95.16
68988;BME280;56038;46.080;11.116;2023-05-14T21:37:33;98799.22;;;12.51;95.43
68988;BME280;56038;46.080;11.116;2023-05-14T21:42:36;98795.66;;;12.52;95.17
68988;BME280;56038;46.080;11.116;2023-05-14T21:47:38;98788.00;;;12.49;95.92
68988;BME280;56038;46.080;11.116;2023-05-14T21:52:40;98794.00;;;12.51;95.84
68988;BME280;56038;46.080;11.116;2023-05-14T21:57:43;98787.06;;;12.50;95.57
68988;BME280;56038;46.080;11.116;2023-05-14T22:02:45;98782.00;;;12.47;96.14
68988;BME280;56038;46.080;11.116;2023-05-14T22:07:47;98777.19;;;12.40;96.77
68988;BME280;56038;46.080;11.116;2023-05-14T22:12:51;98779.31;;;12.33;97.42
68988;BME280;56038;46.080;11.116;2023-05-14T22:17:52;98767.31;;;12.29;97.20
68988;BME280;56038;46.080;11.116;2023-05-14T22:28:05;98756.84;;;12.29;96.94
68988;BME280;56038;46.080;11.116;2023-05-14T22:33:07;98772.81;;;12.24;97.89
68988;BME280;56038;46.080;11.116;2023-05-14T22:38:10;98763.44;;;12.20;98.31
68988;BME280;56038;46.080;11.116;2023-05-14T22:43:14;98765.22;;;12.20;98.94
68988;BME280;56038;46.080;11.116;2023-05-14T22:48:16;98770.28;;;12.23;98.49
68988;BME280;56038;46.080;11.116;2023-05-14T22:53:18;98755.31;;;12.25;97.82
68988;BME280;56038;46.080;11.116;2023-05-14T22:58:21;98760.47;;;12.26;97.95
68988;BME280;56038;46.080;11.116;2023-05-14T23:08:25;98758.22;;;12.20;97.67
68988;BME280;56038;46.080;11.116;2023-05-14T23:13:29;98754.84;;;12.18;97.93
68988;BME280;56038;46.080;11.116;2023-05-14T23:18:30;98753.47;;;12.11;97.90
68988;BME280;56038;46.080;11.116;2023-05-14T23:23:32;98748.34;;;12.10;98.29
68988;BME280;56038;46.080;11.116;2023-05-14T23:28:36;98744.56;;;12.15;96.99
68988;BME280;56038;46.080;11.116;2023-05-14T23:33:37;98743.84;;;12.12;96.88
68988;BME280;56038;46.080;11.116;2023-05-14T23:38:40;98737.69;;;12.13;96.79
68988;BME280;56038;46.080;11.116;2023-05-14T23:59:12;98714.06;;;11.98;100.00
